Impacts TAF Board INFO
FOR SITUATIONAL AWARENESS. NOT TO BE USED FOR FLIGHT PLANNING PURPOSES.
IDs:

KTLH - Tallahassee Intl, FL, US

Issued at 1721 UTC 25 Feb 2018
Updated at 1746 UTC 25 Feb 2018
Potential Impact None Slight Moderate High
Time1722Z 25/18Z 25/19Z 25/20Z 25/21Z 25/22Z 25/23Z 26/00Z 26/01Z 26/02Z 26/03Z 26/04Z 26/05Z 26/06Z>>
Type OBS PRVL
  [TEMP]  
PRVL
  [TEMP]  
PRVL PRVL PRVL PRVL PRVL PRVL PRVL PRVL PRVL PRVL PRVL
VIS 10 >6
  [4]  
>6
  [4]  
>6 >6 >6 >6 >6 >6 >6 >6 4 4 4
CIG 70 35
  [35]  
35
  [35]  
35 35 35 35 35 35 35 35 15 15 15
Cover OVC BKN
  [BKN]  
BKN
  [BKN]  
BKN BKN BKN BKN BKN BKN BKN BKN BKN BKN BKN
FltCat VFR VFR
  [MVFR]  
VFR
  [MVFR]  
VFR VFR VFR VFR VFR VFR VFR VFR MVFR MVFR MVFR
WX -- --
  [SHRA BR]  
--
  [SHRA BR]  
-- -- -- -- -- -- -- -- BR BR BR
WDir 150 190
[190]
190
[190]
190 190 190 190 190 190 190 190 170 170 170
WSpd 3 8
  [8]  
8
  [8]  
8 8 8 8 8 8 8 8 5 5 5
WGst -- --
  [--]  
--
  [--]  
-- -- -- -- -- -- -- -- -- -- --

Raw TAF
KTLH 251721Z 2518/2618 19008KT P6SM BKN035
  TEMPO 2518/2520 4SM SHRA BR
  FM260400 17005KT 4SM BR BKN015
  FM260800 00000KT 1SM BR BKN002
  FM261600 20005KT P6SM BKN035


Raw METAR
KTLH 251722Z 15003KT 10SM FEW007 BKN070 OVC090 22/21 A3016 RMK AO2 T02170206
KTLH 251653Z 18003KT 7SM BKN060 OVC075 21/21 A3016 RMK AO2 RAE44 SLP213 P0023 T02110206
KTLH 251629Z 20006KT 3SM -RA BR FEW022 BKN034 OVC065 21/20 A3016 RMK AO2 P0023 T02110200
KTLH 251619Z 20007KT 2SM +RA BR FEW008 SCT021 OVC030 21/21 A3017 RMK AO2 P0019 T02060206
KTLH 251609Z 23009G17KT 3/4SM RA BR SCT008 BKN023 OVC030 21/19 A3017 RMK AO2 P0004 T02110194
KTLH 251607Z 23011KT 4SM -RA BR SCT008 BKN023 OVC030 21/19 A3017 RMK AO2 P0003 T02110194
KTLH 251553Z 29011KT 10SM -RA OVC008 22/21 A3017 RMK AO2 RAB17 CIG 005V013 SLP214 P0001 T02170211
KTLH 251510Z 19005KT 6SM BR OVC006 22/22 A3016 RMK AO2 CIG 003V009 T02220217
KTLH 251453Z 18005KT 3SM BR OVC003 22/22 A3015 RMK AO2 RAB1354E05 SLP208 P0005 60006 T02170217 51010

METAR Board
Radar Display
Forecast Discussion

FOR SITUATIONAL AWARENESS. NOT TO BE USED FOR FLIGHT PLANNING PURPOSES.